CheckWX is a tool to help pilots better visualize weather data.  It is not intended as a substitute for an official pre-flight weather briefing.

12:58:01 UTC

LTCN TAF
Kahramanmaraş Airport
Kahramanmaraş, Turkey
TAF LTCN 261040Z 2612/2621 29012KT 9999 SCT040 BKN100

Mar-26@
12:00 UTC

Mar-26 @ 12:00 UTC

Mar-26@
21:00 UTC

Mar-26 @ 21:00 UTC

TAF LTCN 261040Z 2612/2621 29012KT 9999 SCT040 BKN100
Wind
  • 290° at 12 KTS
Cloud Levels
  • Scattered at 4,000' AGL
  • Broken at 10,000' AGL